Česky Dansk Deutsch English Español Suomi Français Magyar Italiano Nederlands norsk Polski Português svenska Türkçe

 

Het Weer

Kruunupyy (Finland)

15:20, 2 augustus 2016 (GMT)

NWNNE
WE
SWSSE
Home            
Kruunupyy Kauhava Vaasa Ilmajoki Seinajoki-Ilmajok Umea Flygplats Ahtari Skelleftea Airport Viitasaari Hailuoto Oulu Jyvaskyla Lulea / Kallax Ornskoldsvik Airport Halli Kajaani Lycksele Kemi Kuopio Tampere / Pirkkala Pori Pudasjarvi Kramfors Flygplats

Om een weerknop op uw website of weblog te plaatsen, copieer onderstaande code en plak die in uw pagina. In het eerste vakje staat HTML-code, in het tweede vakje UBB-code.


Add to Google

Details

Wind speed:2 bf, 6 kn, 3.1 m/s, 6.9 miles/h, 11.1 km/h
Wind direction:ESE, 120° - SW, 220°
Visibility:Greater than 10000 m, 10 km, 32800 ft, 6.2 miles
Clouds:CAVOC
Temperature:18°C, 64°F
Dew-point:11°C, 52°F
Atmospheric pressure:1005 hPa, 753.8 mmHg, 29.68 inHg, 0.992 atm
Relative humidity:63.6 %
METAR:EFKK 021520Z AUTO 18006KT 120V220 CAVOK 18/11 Q1005

Snelkoppelingen

Actuele weersinformatie van de hele wereld. Voeg locaties toe met het plus (+) symbool. Deze snelkoppelingen kunnen worden toegevoegd aan Google.

Lid van de Technetium groep

website free tracking
StatCounter NetStat W3C Validator

06-12-2019 10:01:10
astro.technetium.be money.technetium.be phote.technetium.be tafeltennistafel.technetium.be www.ligfiets.net